メインページ
METAR-TAF:

METAR-TAF

空港 :

ザグレブ国際空港

ザグレブ, クロアチア

緯度: 45-44N, 経度: 016-04E, 海抜: 106m

現時点の気象観測

当レポートは24分前の03:30(UTC)に作成
西/南西の風 4kt
気温 3°C
湿度 93%
気圧 1032 hPa
視程10km以上
浅い霧

METAR: LDZA 250330Z 25004KT 9999 R23/1400D MIFG NSC 03/02 Q1032 TEMPO 1500 BR

時間: 05:54 (03:54 UTC)

予報

当レポートは4時間29分前の23:25(UTC)に作成
予報は25日の 00時(UTC)から 26日の 00時(UTC)まで有効
変向風 2kt
視程10km以上
1,500メートル以下は雲なし、積乱雲なし
25日の 00時(UTC)から 25日の 06時(UTC)まで一時的に
視程: 1500m
浅い霧, 靄
25日の 06時(UTC)から 25日の 08時(UTC)まで徐々に
北東の風 8kt

TAF: LDZA 242325Z 2500/2600 VRB02KT CAVOK TX14/2513Z TN04/2502Z TEMPO 2500/2506 1500 MIFG BR BECMG 2506/2508 05008KT

4,000以上の空港の気象観測と天気予報(METAR報とTAF報)

利用可能な観測所は地図上に黄色い丸と赤い丸で示す。

丸の上にカーソルを重ねると観測所名を参照できる。

次にクリックすると気象観測と天気予報を参照できる。

マップの切り替え:黒色「×」印の緑ボタンをクリックして拡大、「-」印の緑ボタンをクリックして縮小、緑色の三角印をクリックして隣りの地図に切り替え


METAR-TAF: